Condiciones actuales en los principales Aeropuertos de España-Datos Metar

 

LEAL - Alicante
Actualización: 19/10/2017 00:00
Light drizzle, Poco nuboso
Light drizzle, Poco nuboso
 Viento del NO
Viento: NO 11 km/h
Temperatura: 18°C
Rocío: 13°C
Humedad: 73%
Barómetro: 1012 hPa
Resumen: Light Drizzle
Nubosidad: Few Clouds
Visibilidad: 10 km
Cloud details: Few Clouds 762 m
2017/10/18 22:00 LEAL 182200Z 31006KT 9999 -DZ FEW025 18/13 Q1012 NOSIG
LEAB - Albacete
Actualización: 19/10/2017 00:00
Despejado
Despejado
 Viento del SO
Viento: SO 13 km/h
Temperatura: 11°C
Rocío: 9°C
Humedad: 88%
Barómetro: 1014 hPa
Resumen: Despejado
Visibilidad: greater than 10 km
2017/10/18 22:00 LEAB 182200Z 23007KT CAVOK 11/09 Q1014 NOSIG
LEAM - Almería
Actualización: 19/10/2017 00:00
Despejado
Despejado
 Viento del OSO
Viento: OSO 26 km/h
Temperatura: 19°C
Rocío: 17°C
Humedad: 88%
Barómetro: 1013 hPa
Resumen: Despejado
Visibilidad: greater than 10 km
2017/10/18 22:00 LEAM 182200Z AUTO 25014KT 220V290 CAVOK 19/17 Q1013
 
LEAS - Asturias/Aviles
Actualización: 19/10/2017 00:00
Few Clouds
Few Clouds
 Viento del SO
Viento: SO 15 km/h
Temperatura: 13°C
Rocío: 10°C
Humedad: 82%
Barómetro: 1011 hPa
Nubosidad: Few Clouds
Visibilidad: 10 km
Cloud details: Few Clouds 762 m
2017/10/18 22:00 LEAS 182200Z 23008KT 9999 FEW025 13/10 Q1011 NOSIG
LEBZ - Badajoz/Talavera la Real
Actualización: 18/10/2017 21:00
NO Actualizado
Despejado
Despejado
 Viento del SO
Viento: SO 9 km/h
Temperatura: 18°C
Rocío: 12°C
Humedad: 68%
Barómetro: 1012 hPa
Resumen: Despejado
Visibilidad: greater than 10 km
2017/10/18 19:00 LEBZ 181900Z 23005KT CAVOK 18/12 Q1012
LEBL - Barcelona
Actualización: 19/10/2017 00:00
Thunderstorm, LLuvia, Poco nuboso
Thunderstorm, LLuvia, Poco nuboso
 Viento del NE
Viento: NE 7 km/h
Temperatura: 17°C
Rocío: 16°C
Humedad: 94%
Barómetro: 1012 hPa
Resumen: Thunderstorm, LLuvia
Nubosidad: Few Clouds
Visibilidad: 7 km
Cloud details: Few Clouds 457 m
Mostly Cloudy 762 m
Few Clouds 914 m
2017/10/18 22:00 LEBL 182200Z 05004KT 010V160 7000 TS RA FEW015 BKN025 FEW030CB 17/16 Q1012 NOSIG
 
LEBB - Bilbao
Actualización: 19/10/2017 00:00
Lluvia débil, Muy nuboso
Lluvia débil, Muy nuboso
 Viento del varies
Viento: varies 2 km/h
Temperatura: 14°C
Rocío: 14°C
Humedad: 100%
Barómetro: 1011 hPa
Resumen: Light Rain
Nubosidad: Mostly Cloudy
Visibilidad: 9 km
Cloud details: Few Clouds 610 m
Mostly Cloudy 853 m
2017/10/18 22:00 LEBB 182200Z VRB01KT 9000 -RA FEW020 BKN028 14/14 Q1011 TEMPO 4000 DZ
LEBG - Burgos/Villafría
Actualización: 19/10/2017 00:00
Chubascos, Thunderstorm
Chubascos, Thunderstorm
 Viento del S
Viento: S 15 km/h
Temperatura: 9°C
Wind Chill: 7°C
Rocío: 8°C
Humedad: 94%
Barómetro: 1012 hPa
Resumen: Rain Showers
Nubosidad: Thunderstorm
Visibilidad: 9 km
Cloud details: Partly Cloudy 762 m
Mostly Cloudy 1006 m
Mostly Cloudy 1219 m
2017/10/18 22:00 LEBG 182200Z AUTO 18008KT 9000 SHRA SCT025/// BKN033/// BKN040/// ///TCU 09/08 Q1012
LEBA - Córdoba
Actualización: 19/10/2017 00:00
Mostly Cloudy
Mostly Cloudy
 Viento del O
Viento: O 9 km/h
Temperatura: 17°C
Rocío: 16°C
Humedad: 94%
Barómetro: 1014 hPa
Nubosidad: Mostly Cloudy
Visibilidad: 10 km
Cloud details: Mostly Cloudy 457 m
Mostly Cloudy 823 m
Mostly Cloudy 1463 m
2017/10/18 22:00 LEBA 182200Z AUTO 26005KT 210V320 9999 BKN015/// BKN027/// BKN048/// 17/16 Q1014
 
LEGE - Gerona
Actualización: 19/10/2017 00:00
Partly Cloudy
Partly Cloudy
 Viento del varies
Viento: varies 4 km/h
Temperatura: 15°C
Rocío: 15°C
Humedad: 100%
Barómetro: 1012 hPa
Nubosidad: Partly Cloudy
Visibilidad: 10 km
Cloud details: Few Clouds 610 m
Partly Cloudy 2743 m
2017/10/18 22:00 LEGE 182200Z VRB02KT 9999 FEW020TCU SCT090 15/15 Q1012
LEGR - Granada
Actualización: 19/10/2017 00:00
Light drizzle, Muy nuboso
Light drizzle, Muy nuboso
 Viento del varies
Viento: varies 4 km/h
Temperatura: 14°C
Rocío: 13°C
Humedad: 94%
Barómetro: 1015 hPa
Resumen: Light Drizzle
Nubosidad: Mostly Cloudy
Visibilidad: 10 km
Cloud details: Partly Cloudy 610 m
Mostly Cloudy 1219 m
2017/10/18 22:00 LEGR 182200Z VRB02KT 9999 -DZ SCT020 BKN040 14/13 Q1015
GCHI - Hierro
Actualización: 19/10/2017 00:00
Few Clouds
Few Clouds
 Viento del N
Viento: N 28 km/h
Temperatura: 23°C
Rocío: 18°C
Humedad: 74%
Barómetro: 1023 hPa
Nubosidad: Few Clouds
Visibilidad: 10 km
Cloud details: Few Clouds 640 m
2017/10/18 22:00 GCHI 182200Z AUTO 36015KT 9999 FEW021/// 23/18 Q1023
 
LEIB - Ibiza
Actualización: 19/10/2017 00:00
Lluvia débil, Parcialmente nublado
Lluvia débil, Parcialmente nublado
 Viento del SSO
Viento: SSO 35 km/h, Racha: 57 km/h
Temperatura: 21°C
Rocío: 16°C
Humedad: 73%
Barómetro: 1012 hPa
Resumen: Light Rain
Nubosidad: Partly Cloudy
Visibilidad: 10 km
Cloud details: Few Clouds 732 m
Partly Cloudy 975 m
2017/10/18 22:00 LEIB 182200Z 20019G31KT 170V240 9999 -RA FEW024 SCT032 21/16 Q1012 TEMPO TSRA FEW020CB
LEJR - Jerez de la Frontera
Actualización: 19/10/2017 00:00

 Viento del SO
Viento: SO 6 km/h
Temperatura: 19°C
Rocío: 17°C
Humedad: 88%
Barómetro: 1014 hPa
Visibilidad: 10 km
2017/10/18 22:00 LEJR 182200Z AUTO 23003KT 9999 ////// 19/17 Q1014
LECO - A Coruña
Actualización: 19/10/2017 00:00
Despejado
Despejado
 Viento del S
Viento: S 9 km/h
Temperatura: 11°C
Rocío: 10°C
Humedad: 94%
Barómetro: 1012 hPa
Resumen: Despejado
Visibilidad: greater than 10 km
2017/10/18 22:00 LECO 182200Z 18005KT CAVOK 11/10 Q1012 NOSIG
 
GCLA - La Palma
Actualización: 19/10/2017 00:00
Despejado
Despejado
 Viento del varies
Viento: varies 4 km/h
Temperatura: 23°C
Rocío: 17°C
Humedad: 69%
Barómetro: 1023 hPa
Nubosidad: Despejado
Visibilidad: 10 km
2017/10/18 22:00 GCLA 182200Z AUTO VRB02KT 9999 NCD 23/17 Q1023
GCRR - Lanzarote
Actualización: 19/10/2017 00:00
Few Clouds
Few Clouds
 Viento del NNE
Viento: NNE 6 km/h
Temperatura: 22°C
Rocío: 17°C
Humedad: 73%
Barómetro: 1022 hPa
Nubosidad: Few Clouds
Visibilidad: 10 km
Cloud details: Few Clouds 762 m
2017/10/18 22:00 GCRR 182200Z 02003KT 340V050 9999 FEW025 22/17 Q1022
GCLP - Las Palmas
Actualización: 19/10/2017 00:00
Few Clouds
Few Clouds
 Viento del N
Viento: N 24 km/h
Temperatura: 23°C
Rocío: 16°C
Humedad: 65%
Barómetro: 1022 hPa
Nubosidad: Few Clouds
Visibilidad: 10 km
Cloud details: Few Clouds 762 m
2017/10/18 22:00 GCLP 182200Z 36013KT 9999 FEW025 23/16 Q1022 NOSIG
 
LELN - León
Actualización: 18/10/2017 22:00
NO Actualizado
Few Clouds
Few Clouds
 Viento del ONO
Viento: ONO 11 km/h
Temperatura: 7°C
Wind Chill: 5°C
Rocío: 5°C
Humedad: 87%
Barómetro: 1012 hPa
Nubosidad: Few Clouds
Visibilidad: 10 km
Cloud details: Few Clouds 1219 m
2017/10/18 20:00 LELN 182000Z 29006KT 260V320 9999 FEW040 07/05 Q1012
LELO - Logroño
Actualización: 18/10/2017 23:00
Lluvia débil, Cubierto
Lluvia débil, Cubierto
 Viento del O
Viento: O 15 km/h
Temperatura: 12°C
Rocío: 10°C
Humedad: 88%
Barómetro: 1011 hPa
Resumen: Light Rain
Nubosidad: Cubierto
Visibilidad: 10 km
Cloud details: Mostly Cloudy 762 m
Cubierto 1067 m
2017/10/18 21:00 LELO 182100Z 26008KT 230V290 9999 -RA BKN025 OVC035 12/10 Q1011
LECV - Madrid/Colmenar
Actualización: 18/10/2017 19:00
NO Actualizado
Mostly Cloudy
Mostly Cloudy
 Viento del varies
Viento: varies 4 km/h
Temperatura: 10°C
Rocío: 7°C
Humedad: 82%
Barómetro: 1011 hPa
Nubosidad: Mostly Cloudy
Visibilidad: 10 km
Cloud details: Few Clouds 213 m
Mostly Cloudy 1372 m
2017/10/18 17:00 LECV 181700Z VRB02KT 9999 FEW007 BKN045 10/07 Q1011
 
LEMD - Madrid/Barajas
Actualización: 19/10/2017 00:00
Partly Cloudy
Partly Cloudy
 Viento del ENE
Viento: ENE 6 km/h
Temperatura: 10°C
Rocío: 9°C
Humedad: 94%
Barómetro: 1013 hPa
Nubosidad: Partly Cloudy
Visibilidad: 10 km
Cloud details: Partly Cloudy 2134 m
2017/10/18 22:00 LEMD 182200Z 07003KT 040V100 9999 SCT070 10/09 Q1013
LEVS - Madrid/Cuatro Vientos
Actualización: 18/10/2017 22:00
NO Actualizado
Partly Cloudy
Partly Cloudy
 Viento del OSO
Viento: OSO 7 km/h
Temperatura: 12°C
Rocío: 10°C
Humedad: 88%
Barómetro: 1013 hPa
Nubosidad: Partly Cloudy
Visibilidad: 10 km
Cloud details: Partly Cloudy 1524 m
2017/10/18 20:00 LEVS 182000Z 24004KT 9999 SCT050 12/10 Q1013
LEGT - Madrid/Getafe
Actualización: 18/10/2017 20:00
NO Actualizado
Partly Cloudy
Partly Cloudy
 Viento del SO
Viento: SO 9 km/h
Temperatura: 11°C
Rocío: 9°C
Humedad: 88%
Barómetro: 1011 hPa
Nubosidad: Partly Cloudy
Visibilidad: 10 km
Cloud details: Few Clouds 914 m
Partly Cloudy 1219 m
2017/10/18 18:00 LEGT 181800Z 23005KT 9999 FEW030 SCT040TCU 11/09 Q1011
 
LETO - Madrid/Torrejón
Actualización: 19/10/2017 00:00
Partly Cloudy
Partly Cloudy
 Viento del E
Viento: E 2 km/h
Temperatura: 10°C
Rocío: 10°C
Humedad: 100%
Barómetro: 1013 hPa
Nubosidad: Partly Cloudy
Visibilidad: 10 km
Cloud details: Partly Cloudy 1524 m
2017/10/18 22:00 LETO 182200Z 08001KT 9999 SCT050 10/10 Q1013 NOSIG
LEMG - Málaga
Actualización: 19/10/2017 00:00
Lluvia débil, Parcialmente nublado
Lluvia débil, Parcialmente nublado
 Viento del calm
Viento: Calma
Temperatura: 18°C
Rocío: 17°C
Humedad: 94%
Barómetro: 1015 hPa
Resumen: Light Rain
Nubosidad: Partly Cloudy
Visibilidad: 10 km
Cloud details: Few Clouds 244 m
Partly Cloudy 1372 m
2017/10/18 22:00 LEMG 182200Z 00000KT 9999 -RA FEW008 SCT045 18/17 Q1015 NOSIG
GEML - Melilla
Actualización: 19/10/2017 00:00
Despejado
Despejado
 Viento del OSO
Viento: OSO 6 km/h
Temperatura: 20°C
Rocío: 17°C
Humedad: 83%
Barómetro: 1015 hPa
Resumen: Despejado
Visibilidad: greater than 10 km
2017/10/18 22:00 GEML 182200Z AUTO 24003KT 210V280 CAVOK 20/17 Q1015
 
LEMH - Mahón
Actualización: 19/10/2017 00:00
Partly Cloudy
Partly Cloudy
 Viento del S
Viento: S 19 km/h
Temperatura: 22°C
Rocío: 18°C
Humedad: 78%
Barómetro: 1014 hPa
Nubosidad: Partly Cloudy
Visibilidad: 10 km
Cloud details: Partly Cloudy 488 m
2017/10/18 22:00 LEMH 182200Z 18010KT 9999 SCT016 22/18 Q1014
LEMO - Morón de La Frontera
Actualización: 19/10/2017 00:00
LLuvia, Parcialmente nublado
LLuvia, Parcialmente nublado
 Viento del SO
Viento: SO 9 km/h
Temperatura: 18°C
Rocío: 17°C
Humedad: 94%
Barómetro: 1014 hPa
Resumen: LLuvia
Nubosidad: Partly Cloudy
Visibilidad: 6 km
Cloud details: Few Clouds 122 m
Partly Cloudy 274 m
2017/10/18 22:00 LEMO 182200Z 23005KT 6000 RA FEW004 SCT009 18/17 Q1014 NOSIG
LERI - Murcia/Alcantarilla
Actualización: 18/10/2017 20:00
NO Actualizado
Few Clouds
Few Clouds
 Viento del NO
Viento: NO 6 km/h
Temperatura: 19°C
Rocío: 14°C
Humedad: 73%
Barómetro: 1011 hPa
Nubosidad: Few Clouds
Visibilidad: 10 km
Cloud details: Few Clouds 1524 m
2017/10/18 18:00 LERI 181800Z 31003KT 280V340 9999 FEW050 19/14 Q1011 NOSIG
 
LELC - Murcia/San Javier
Actualización: 18/10/2017 23:00
Few Clouds
Few Clouds
 Viento del calm
Viento: Calma
Temperatura: 19°C
Rocío: 17°C
Humedad: 88%
Barómetro: 1012 hPa
Nubosidad: Few Clouds
Visibilidad: 9 km
Cloud details: Few Clouds 610 m
2017/10/18 21:00 LELC 182100Z 00000KT 9000 FEW020 19/17 Q1012 NOSIG
LEPA - Palma de Mallorca
Actualización: 19/10/2017 00:00
Nearby thunderstorm, Poco nuboso
Nearby thunderstorm, Poco nuboso
 Viento del SSO
Viento: SSO 15 km/h
Temperatura: 24°C
Rocío: 19°C
Humedad: 74%
Barómetro: 1012 hPa
Resumen: Nearby Thunderstorm
Nubosidad: Few Clouds
Visibilidad: 10 km
Cloud details: Few Clouds 549 m
Few Clouds 762 m
2017/10/18 22:00 LEPA 182200Z 20008KT 150V230 9999 VCTS FEW018 FEW025CB 24/19 Q1012 TEMPO TSRA
LEPP - Pamplona
Actualización: 19/10/2017 00:00
Lluvia débil, Parcialmente nublado
Lluvia débil, Parcialmente nublado
 Viento del calm
Viento: Calma
Temperatura: 12°C
Rocío: 12°C
Humedad: 100%
Barómetro: 1011 hPa
Resumen: Light Rain
Nubosidad: Partly Cloudy
Visibilidad: 10 km
Cloud details: Few Clouds 396 m
Partly Cloudy 1585 m
2017/10/18 22:00 LEPP 182200Z 00000KT 9999 -RA FEW013 SCT052 12/12 Q1011
 
LERS - Reus
Actualización: 19/10/2017 00:00
Few Clouds
Few Clouds
 Viento del varies
Viento: varies 4 km/h
Temperatura: 17°C
Rocío: 16°C
Humedad: 94%
Barómetro: 1011 hPa
Nubosidad: Few Clouds
Visibilidad: 10 km
Cloud details: Few Clouds 732 m
Partly Cloudy 1036 m
Few Clouds 1524 m
2017/10/18 22:00 LERS 182200Z VRB02KT 9999 FEW024 SCT034 FEW050CB 17/16 Q1011 RERA
LERT - Rota
Actualización: 19/10/2017 00:00
Partly Cloudy
Partly Cloudy
 Viento del O
Viento: O 15 km/h
Temperatura: 20°C
Rocío: 16°C
Humedad: 78%
Barómetro: 1014 hPa
Nubosidad: Partly Cloudy
Visibilidad: 10 km
Cloud details: Partly Cloudy 610 m
2017/10/18 22:00 LERT 182200Z 26008KT 230V290 9999 SCT020 20/16 Q1014 NOSIG
LELL - Sabadell
Actualización: 19/10/2017 00:00
Thunderstorm rain, Nearby thunderstorm, Thunderstorm
Thunderstorm rain, Nearby thunderstorm, Thunderstorm
 Viento del OSO
Viento: OSO 2 km/h
Temperatura: 16°C
Rocío: 16°C
Humedad: 100%
Barómetro: 1012 hPa
Resumen: Thunderstorm rain, Nearby thunderstorm
Nubosidad: Thunderstorm
Cloud details: Few Clouds 1768 m
2017/10/18 22:00 LELL 182200Z AUTO 25001KT //// R31///// TSRA VCTS FEW058 ///CB 16/16 Q1012
 
LESA - Salamanca
Actualización: 18/10/2017 22:30
NO Actualizado
Partly Cloudy
Partly Cloudy
 Viento del varies
Viento: varies 4 km/h
Temperatura: 8°C
Rocío: 6°C
Humedad: 87%
Barómetro: 1013 hPa
Nubosidad: Partly Cloudy
Visibilidad: 10 km
Cloud details: Few Clouds 914 m
Partly Cloudy 1280 m
2017/10/18 20:30 LESA 182030Z VRB02KT 9999 FEW030 SCT042 08/06 Q1013
LESO - San Sebastián
Actualización: 19/10/2017 00:00
Lluvia débil, Cubierto
Lluvia débil, Cubierto
 Viento del SO
Viento: SO 9 km/h
Temperatura: 15°C
Rocío: 15°C
Humedad: 100%
Barómetro: 1011 hPa
Resumen: Light Rain
Nubosidad: Cubierto
Visibilidad: 10 km
Cloud details: Few Clouds 914 m
Mostly Cloudy 1128 m
Cubierto 1463 m
2017/10/18 22:00 LESO 182200Z AUTO 22005KT 170V250 9999 -RA FEW030/// BKN037/// OVC048/// 15/15 Q1011
LEXJ - Santander
Actualización: 19/10/2017 00:00
Partly Cloudy
Partly Cloudy
 Viento del SO
Viento: SO 15 km/h
Temperatura: 14°C
Rocío: 10°C
Humedad: 77%
Barómetro: 1011 hPa
Nubosidad: Partly Cloudy
Visibilidad: 10 km
Cloud details: Few Clouds 1036 m
Partly Cloudy 2377 m
2017/10/18 22:00 LEXJ 182200Z 22008KT 9999 FEW034 SCT078 14/10 Q1011
 
LEPA - Palma de Mallorca
Actualización: 19/10/2017 00:00
Nearby thunderstorm, Poco nuboso
Nearby thunderstorm, Poco nuboso
 Viento del SSO
Viento: SSO 15 km/h
Temperatura: 24°C
Rocío: 19°C
Humedad: 74%
Barómetro: 1012 hPa
Resumen: Nearby Thunderstorm
Nubosidad: Few Clouds
Visibilidad: 10 km
Cloud details: Few Clouds 549 m
Few Clouds 762 m
2017/10/18 22:00 LEPA 182200Z 20008KT 150V230 9999 VCTS FEW018 FEW025CB 24/19 Q1012 TEMPO TSRA
LEPP - Pamplona
Actualización: 19/10/2017 00:00
Lluvia débil, Parcialmente nublado
Lluvia débil, Parcialmente nublado
 Viento del calm
Viento: Calma
Temperatura: 12°C
Rocío: 12°C
Humedad: 100%
Barómetro: 1011 hPa
Resumen: Light Rain
Nubosidad: Partly Cloudy
Visibilidad: 10 km
Cloud details: Few Clouds 396 m
Partly Cloudy 1585 m
2017/10/18 22:00 LEPP 182200Z 00000KT 9999 -RA FEW013 SCT052 12/12 Q1011
LEST - Santiago de Compostela
Actualización: 19/10/2017 00:00
Niebla, Parcialmente nublado
Niebla, Parcialmente nublado
 Viento del SSE
Viento: SSE 7 km/h
Temperatura: 10°C
Wind Chill: 9°C
Rocío: 10°C
Humedad: 100%
Barómetro: 1013 hPa
Resumen: Niebla
Nubosidad: Partly Cloudy
Visibilidad: 1 km
Cloud details: Partly Cloudy 30 m
2017/10/18 22:00 LEST 182200Z 16004KT 0600 R17/0500N R35/0400N FG SCT001 10/10 Q1013 TEMPO 0350 BKN001
 
LEZL - Sevilla
Actualización: 19/10/2017 00:00
Lluvia débil, Poco nuboso
Lluvia débil, Poco nuboso
 Viento del SSO
Viento: SSO 7 km/h
Temperatura: 18°C
Rocío: 18°C
Humedad: 100%
Barómetro: 1013 hPa
Resumen: Light Rain
Nubosidad: Few Clouds
Visibilidad: 10 km
Cloud details: Few Clouds 305 m
2017/10/18 22:00 LEZL 182200Z 21004KT 9999 -RA FEW010 18/18 Q1013 NOSIG
GCXO - Tenerife
Actualización: 19/10/2017 00:00
Few Clouds
Few Clouds
 Viento del ONO
Viento: ONO 35 km/h
Temperatura: 17°C
Rocío: 16°C
Humedad: 94%
Barómetro: 1024 hPa
Nubosidad: Few Clouds
Visibilidad: 10 km
Cloud details: Few Clouds 213 m
2017/10/18 22:00 GCXO 182200Z 30019KT 9999 FEW007 17/16 Q1024 NOSIG
GCTS - Tenerife-Sur
Actualización: 19/10/2017 00:00
Few Clouds
Few Clouds
 Viento del ONO
Viento: ONO 7 km/h
Temperatura: 22°C
Rocío: 17°C
Humedad: 73%
Barómetro: 1022 hPa
Nubosidad: Few Clouds
Visibilidad: 10 km
Cloud details: Few Clouds 762 m
2017/10/18 22:00 GCTS 182200Z 30004KT 9999 FEW025 22/17 Q1022 NOSIG
 
LEVC - Valencia
Actualización: 19/10/2017 00:00
Few Clouds
Few Clouds
 Viento del O
Viento: O 6 km/h
Temperatura: 17°C
Rocío: 12°C
Humedad: 73%
Barómetro: 1012 hPa
Nubosidad: Few Clouds
Visibilidad: 10 km
Cloud details: Few Clouds 610 m
2017/10/18 22:00 LEVC 182200Z 26003KT 9999 FEW020 17/12 Q1012 NOSIG
LEVD - Valladolid
Actualización: 18/10/2017 21:30
NO Actualizado
Mostly Cloudy
Mostly Cloudy
 Viento del OSO
Viento: OSO 6 km/h
Temperatura: 9°C
Rocío: 7°C
Humedad: 87%
Barómetro: 1012 hPa
Nubosidad: Mostly Cloudy
Visibilidad: 10 km
Cloud details: Mostly Cloudy 914 m
2017/10/18 19:30 LEVD 181930Z 25003KT 9999 BKN030 09/07 Q1012
LEVX - Vigo
Actualización: 19/10/2017 00:00
Few Clouds
Few Clouds
 Viento del SSO
Viento: SSO 7 km/h
Temperatura: 12°C
Rocío: 10°C
Humedad: 88%
Barómetro: 1013 hPa
Nubosidad: Few Clouds
Visibilidad: 10 km
Cloud details: Few Clouds 762 m
2017/10/18 22:00 LEVX 182200Z 20004KT 170V240 9999 FEW025 12/10 Q1013 NOSIG
 
LEVT - Vitoria
Actualización: 19/10/2017 00:00
LLuvia, Muy nuboso
LLuvia, Muy nuboso
 Viento del O
Viento: O 6 km/h
Temperatura: 11°C
Rocío: 11°C
Humedad: 100%
Barómetro: 1012 hPa
Resumen: LLuvia
Nubosidad: Mostly Cloudy
Visibilidad: 9 km
Cloud details: Few Clouds 457 m
Mostly Cloudy 975 m
2017/10/18 22:00 LEVT 182200Z 26003KT 230V290 9000 RA FEW015 BKN032 11/11 Q1012
LEZG - Zaragoza
Actualización: 19/10/2017 00:00
Mostly Cloudy
Mostly Cloudy
 Viento del O
Viento: O 17 km/h
Temperatura: 15°C
Rocío: 12°C
Humedad: 82%
Barómetro: 1011 hPa
Nubosidad: Mostly Cloudy
Visibilidad: 10 km
Cloud details: Partly Cloudy 427 m
Mostly Cloudy 2134 m
2017/10/18 22:00 LEZG 182200Z 26009KT 9999 SCT014 BKN070 15/12 Q1011

La estación de MeteoMurcia.com, publica sus datos en los siguientes proyectos:

Meteoclimatic www.awekas.at

W3Counter
Web Analytics